Time,TemperatureF,DewpointF,PressureIn,WindDirection,WindDirectionDegrees,WindSpeedMPH,WindSpeedGustMPH,Humidity,HourlyPrecipIn,Conditions,Clouds,dailyrainin,SolarRadiationWatts/m^2,SoftwareType,DateUTC
2013-02-11 00:01:00,22.0,12.0,-100.00,North,3,2.0,6.0,66,0.00,,,0.00,0.000000,,2013-02-11 07:01:00,
2013-02-11 00:11:00,22.0,12.0,-100.00,North,3,2.0,6.0,66,0.00,,,0.00,0.000000,,2013-02-11 07:11:00,
2013-02-11 00:21:00,22.0,12.0,-100.00,North,3,2.0,6.0,66,0.00,,,0.00,0.000000,,2013-02-11 07:21:00,
2013-02-11 00:32:00,22.0,12.0,-100.00,North,3,2.0,6.0,66,0.00,,,0.00,0.000000,,2013-02-11 07:32:00,
2013-02-11 00:52:00,22.0,14.0,-100.00,NE,47,1.0,5.0,70,0.00,,,0.00,0.000000,,2013-02-11 07:52:00,
2013-02-11 01:01:00,22.0,14.0,-100.00,NE,47,1.0,5.0,70,0.00,,,0.00,0.000000,,2013-02-11 08:01:00,
2013-02-11 01:11:00,22.0,14.0,-100.00,NE,47,1.0,5.0,70,0.00,,,0.00,0.000000,,2013-02-11 08:11:00,
2013-02-11 01:21:00,22.0,14.0,-100.00,NE,47,1.0,5.0,70,0.00,,,0.00,0.000000,,2013-02-11 08:21:00,
2013-02-11 01:31:00,22.0,14.0,-100.00,NE,47,1.0,5.0,70,0.00,,,0.00,0.000000,,2013-02-11 08:31:00,
2013-02-11 01:52:00,19.0,12.0,-100.00,South,171,3.0,4.0,75,0.00,,,0.00,0.000000,,2013-02-11 08:52:00,
2013-02-11 02:01:00,19.0,12.0,-100.00,South,171,3.0,4.0,75,0.00,,,0.00,0.000000,,2013-02-11 09:01:00,
2013-02-11 02:12:00,19.0,12.0,-100.00,South,171,3.0,4.0,75,0.00,,,0.00,0.000000,,2013-02-11 09:12:00,
2013-02-11 02:21:00,19.0,12.0,-100.00,South,171,3.0,4.0,75,0.00,,,0.00,0.000000,,2013-02-11 09:21:00,
2013-02-11 02:32:00,19.0,12.0,-100.00,South,171,3.0,4.0,75,0.00,,,0.00,0.000000,,2013-02-11 09:32:00,
2013-02-11 02:52:00,18.0,13.0,-100.00,NNE,12,1.0,4.0,81,0.00,,,0.00,0.000000,,2013-02-11 09:52:00,
2013-02-11 03:01:00,18.0,13.0,-100.00,NNE,12,1.0,4.0,81,0.00,,,0.00,0.000000,,2013-02-11 10:01:00,
2013-02-11 03:11:00,18.0,13.0,-100.00,NNE,12,1.0,4.0,81,0.00,,,0.00,0.000000,,2013-02-11 10:11:00,
2013-02-11 03:21:00,18.0,13.0,-100.00,NNE,12,1.0,4.0,81,0.00,,,0.00,0.000000,,2013-02-11 10:21:00,
2013-02-11 03:31:00,18.0,13.0,-100.00,NNE,12,1.0,4.0,81,0.00,,,0.00,0.000000,,2013-02-11 10:31:00,
2013-02-11 03:52:00,19.0,13.0,-100.00,SE,142,3.0,6.0,76,0.00,,,0.00,0.000000,,2013-02-11 10:52:00,
2013-02-11 04:01:00,19.0,13.0,-100.00,SE,142,3.0,6.0,76,0.00,,,0.00,0.000000,,2013-02-11 11:01:00,
2013-02-11 04:11:00,19.0,13.0,-100.00,SE,142,3.0,6.0,76,0.00,,,0.00,0.000000,,2013-02-11 11:11:00,
2013-02-11 04:22:00,19.0,13.0,-100.00,SE,142,3.0,6.0,76,0.00,,,0.00,0.000000,,2013-02-11 11:22:00,
2013-02-11 04:32:00,19.0,13.0,-100.00,SE,142,3.0,6.0,76,0.00,,,0.00,0.000000,,2013-02-11 11:32:00,
2013-02-11 04:52:00,20.0,14.0,-100.00,ESE,111,4.0,5.0,76,0.00,,,0.00,0.000000,,2013-02-11 11:52:00,
2013-02-11 05:03:00,20.0,14.0,-100.00,ESE,111,4.0,5.0,76,0.00,,,0.00,0.000000,,2013-02-11 12:03:00,
2013-02-11 05:12:00,20.0,14.0,-100.00,ESE,111,4.0,5.0,76,0.00,,,0.00,0.000000,,2013-02-11 12:12:00,
2013-02-11 05:22:00,20.0,14.0,-100.00,ESE,111,4.0,5.0,76,0.00,,,0.00,0.000000,,2013-02-11 12:22:00,
2013-02-11 05:32:00,20.0,14.0,-100.00,ESE,111,4.0,5.0,76,0.00,,,0.00,0.000000,,2013-02-11 12:32:00,
2013-02-11 05:52:00,22.0,14.0,-100.00,ESE,105,3.0,10.0,72,0.00,,,-99.99,0.000000,,2013-02-11 12:52:00,
2013-02-11 06:02:00,22.0,14.0,-100.00,ESE,105,3.0,10.0,72,0.00,,,-99.99,0.000000,,2013-02-11 13:02:00,
2013-02-11 06:12:00,22.0,14.0,-100.00,ESE,105,3.0,10.0,72,0.00,,,-99.99,0.000000,,2013-02-11 13:12:00,
2013-02-11 06:22:00,22.0,14.0,-100.00,ESE,105,3.0,10.0,72,0.00,,,-99.99,0.000000,,2013-02-11 13:22:00,
2013-02-11 06:32:00,22.0,14.0,-100.00,ESE,105,3.0,10.0,72,0.00,,,-99.99,0.000000,,2013-02-11 13:32:00,
2013-02-11 06:52:00,24.0,9.0,-100.00,ESE,115,8.0,17.0,53,0.00,,,-99.99,0.000000,,2013-02-11 13:52:00,
2013-02-11 07:02:00,24.0,9.0,-100.00,ESE,115,8.0,17.0,53,0.00,,,-99.99,0.000000,,2013-02-11 14:02:00,
2013-02-11 07:11:00,24.0,9.0,-100.00,ESE,115,8.0,17.0,53,0.00,,,-99.99,0.000000,,2013-02-11 14:11:00,
2013-02-11 07:22:00,24.0,9.0,-100.00,ESE,115,8.0,17.0,53,0.00,,,-99.99,0.000000,,2013-02-11 14:22:00,
2013-02-11 07:32:00,24.0,9.0,-100.00,ESE,115,8.0,17.0,53,0.00,,,-99.99,0.000000,,2013-02-11 14:32:00,
2013-02-11 07:53:00,26.0,10.0,-100.00,SSE,154,6.0,12.0,50,0.00,,,0.00,14.000000,,2013-02-11 14:53:00,
2013-02-11 08:02:00,26.0,10.0,-100.00,SSE,154,6.0,12.0,50,0.00,,,0.00,14.000000,,2013-02-11 15:02:00,
2013-02-11 08:11:00,26.0,10.0,-100.00,SSE,154,6.0,12.0,50,0.00,,,0.00,14.000000,,2013-02-11 15:11:00,
2013-02-11 08:22:00,26.0,10.0,-100.00,SSE,154,6.0,12.0,50,0.00,,,0.00,14.000000,,2013-02-11 15:22:00,
2013-02-11 08:32:00,26.0,10.0,-100.00,SSE,154,6.0,12.0,50,0.00,,,0.00,14.000000,,2013-02-11 15:32:00,
2013-02-11 08:52:00,28.0,11.0,-100.00,SSW,192,9.0,14.0,49,0.00,,,0.00,122.000000,,2013-02-11 15:52:00,
2013-02-11 09:02:00,28.0,11.0,-100.00,SSW,192,9.0,14.0,49,0.00,,,0.00,122.000000,,2013-02-11 16:02:00,
2013-02-11 09:12:00,28.0,11.0,-100.00,SSW,192,9.0,14.0,49,0.00,,,0.00,122.000000,,2013-02-11 16:12:00,
2013-02-11 09:22:00,28.0,11.0,-100.00,SSW,192,9.0,14.0,49,0.00,,,0.00,122.000000,,2013-02-11 16:22:00,
2013-02-11 09:32:00,28.0,11.0,-100.00,SSW,192,9.0,14.0,49,0.00,,,0.00,122.000000,,2013-02-11 16:32:00,
2013-02-11 09:52:00,31.0,14.0,-100.00,WSW,238,4.0,9.0,48,0.00,,,0.00,286.000000,,2013-02-11 16:52:00,
2013-02-11 10:02:00,31.0,14.0,-100.00,WSW,238,4.0,9.0,48,0.00,,,0.00,286.000000,,2013-02-11 17:02:00,
2013-02-11 10:11:00,31.0,14.0,-100.00,WSW,238,4.0,9.0,48,0.00,,,0.00,286.000000,,2013-02-11 17:11:00,
2013-02-11 10:22:00,31.0,14.0,-100.00,WSW,238,4.0,9.0,48,0.00,,,0.00,286.000000,,2013-02-11 17:22:00,
2013-02-11 10:32:00,31.0,14.0,-100.00,WSW,238,4.0,9.0,48,0.00,,,0.00,286.000000,,2013-02-11 17:32:00,
2013-02-11 10:53:00,31.0,14.0,-100.00,West,280,7.0,11.0,48,0.00,,,0.00,280.000000,,2013-02-11 17:53:00,
2013-02-11 11:02:00,31.0,14.0,-100.00,West,280,7.0,11.0,48,0.00,,,0.00,280.000000,,2013-02-11 18:02:00,
2013-02-11 11:11:00,31.0,14.0,-100.00,West,280,7.0,11.0,48,0.00,,,0.00,280.000000,,2013-02-11 18:11:00,
2013-02-11 11:21:00,31.0,14.0,-100.00,West,280,7.0,11.0,48,0.00,,,0.00,280.000000,,2013-02-11 18:21:00,
2013-02-11 11:32:00,31.0,14.0,-100.00,West,280,7.0,11.0,48,0.00,,,0.00,280.000000,,2013-02-11 18:32:00,
2013-02-11 11:53:00,33.0,13.0,-100.00,West,271,10.0,16.0,43,0.00,,,0.00,336.000000,,2013-02-11 18:53:00,
2013-02-11 12:02:00,33.0,13.0,-100.00,West,271,10.0,16.0,43,0.00,,,0.00,336.000000,,2013-02-11 19:02:00,
2013-02-11 12:11:00,33.0,13.0,-100.00,West,271,10.0,16.0,43,0.00,,,0.00,336.000000,,2013-02-11 19:11:00,
2013-02-11 12:22:00,33.0,13.0,-100.00,West,271,10.0,16.0,43,0.00,,,0.00,336.000000,,2013-02-11 19:22:00,
2013-02-11 12:32:00,33.0,13.0,-100.00,West,271,10.0,16.0,43,0.00,,,0.00,336.000000,,2013-02-11 19:32:00,
2013-02-11 13:01:00,33.0,12.0,-100.00,West,265,8.0,16.0,41,0.00,,,0.00,480.000000,,2013-02-11 20:01:00,
2013-02-11 13:11:00,33.0,12.0,-100.00,West,265,8.0,16.0,41,0.00,,,0.00,480.000000,,2013-02-11 20:11:00,
2013-02-11 13:21:00,33.0,12.0,-100.00,West,265,8.0,16.0,41,0.00,,,0.00,480.000000,,2013-02-11 20:21:00,
2013-02-11 13:32:00,33.0,12.0,-100.00,West,265,8.0,16.0,41,0.00,,,0.00,480.000000,,2013-02-11 20:32:00,
2013-02-11 13:52:00,33.0,7.0,-100.00,WSW,241,11.0,18.0,33,0.00,,,0.00,266.000000,,2013-02-11 20:52:00,
2013-02-11 14:02:00,33.0,7.0,-100.00,WSW,241,11.0,18.0,33,0.00,,,0.00,266.000000,,2013-02-11 21:02:00,
2013-02-11 14:11:00,33.0,7.0,-100.00,WSW,241,11.0,18.0,33,0.00,,,0.00,266.000000,,2013-02-11 21:11:00,
2013-02-11 14:22:00,33.0,7.0,-100.00,WSW,241,11.0,18.0,33,0.00,,,0.00,266.000000,,2013-02-11 21:22:00,
2013-02-11 14:32:00,33.0,7.0,-100.00,WSW,241,11.0,18.0,33,0.00,,,0.00,266.000000,,2013-02-11 21:32:00,
2013-02-11 14:52:00,33.0,6.0,-100.00,SW,233,10.0,20.0,31,0.00,,,0.00,296.000000,,2013-02-11 21:52:00,
2013-02-11 15:02:00,33.0,6.0,-100.00,SW,233,10.0,20.0,31,0.00,,,0.00,296.000000,,2013-02-11 22:02:00,
2013-02-11 15:11:00,33.0,6.0,-100.00,SW,233,10.0,20.0,31,0.00,,,0.00,296.000000,,2013-02-11 22:11:00,
2013-02-11 15:22:00,33.0,6.0,-100.00,SW,233,10.0,20.0,31,0.00,,,0.00,296.000000,,2013-02-11 22:22:00,
2013-02-11 15:32:00,33.0,6.0,-100.00,SW,233,10.0,20.0,31,0.00,,,0.00,296.000000,,2013-02-11 22:32:00,
2013-02-11 15:52:00,31.0,7.0,-100.00,West,262,6.0,17.0,36,0.00,,,0.00,148.000000,,2013-02-11 22:52:00,
2013-02-11 16:02:00,31.0,7.0,-100.00,West,262,6.0,17.0,36,0.00,,,0.00,148.000000,,2013-02-11 23:02:00,
2013-02-11 16:11:00,31.0,7.0,-100.00,West,262,6.0,17.0,36,0.00,,,0.00,148.000000,,2013-02-11 23:11:00,
2013-02-11 16:21:00,31.0,7.0,-100.00,West,262,6.0,17.0,36,0.00,,,0.00,148.000000,,2013-02-11 23:21:00,
2013-02-11 16:32:00,31.0,7.0,-100.00,West,262,6.0,17.0,36,0.00,,,0.00,148.000000,,2013-02-11 23:32:00,
2013-02-11 16:52:00,31.0,7.0,-100.00,West,277,9.0,14.0,35,0.00,,,0.00,77.000000,,2013-02-11 23:52:00,
2013-02-11 17:02:00,31.0,7.0,-100.00,West,277,9.0,14.0,35,0.00,,,0.00,77.000000,,2013-02-12 00:02:00,
2013-02-11 17:11:00,31.0,7.0,-100.00,West,277,9.0,14.0,35,0.00,,,0.00,77.000000,,2013-02-12 00:11:00,
2013-02-11 17:22:00,31.0,7.0,-100.00,West,277,9.0,14.0,35,0.00,,,0.00,77.000000,,2013-02-12 00:22:00,
2013-02-11 17:32:00,31.0,7.0,-100.00,West,277,9.0,14.0,35,0.00,,,0.00,77.000000,,2013-02-12 00:32:00,
2013-02-11 17:52:00,29.0,13.0,-100.00,NW,318,8.0,14.0,50,0.00,,,0.00,27.000000,,2013-02-12 00:52:00,
2013-02-11 18:02:00,29.0,13.0,-100.00,NW,318,8.0,14.0,50,0.00,,,0.00,27.000000,,2013-02-12 01:02:00,
2013-02-11 18:11:00,29.0,13.0,-100.00,NW,318,8.0,14.0,50,0.00,,,0.00,27.000000,,2013-02-12 01:11:00,
2013-02-11 18:22:00,29.0,13.0,-100.00,NW,318,8.0,14.0,50,0.00,,,0.00,27.000000,,2013-02-12 01:22:00,
2013-02-11 18:32:00,29.0,13.0,-100.00,NW,318,8.0,14.0,50,0.00,,,0.00,27.000000,,2013-02-12 01:32:00,
2013-02-11 18:52:00,26.0,17.0,-100.00,North,2,5.0,12.0,67,0.00,,,0.00,0.000000,,2013-02-12 01:52:00,
2013-02-11 19:02:00,26.0,17.0,-100.00,North,2,5.0,12.0,67,0.00,,,0.00,0.000000,,2013-02-12 02:02:00,
2013-02-11 19:12:00,26.0,17.0,-100.00,North,2,5.0,12.0,67,0.00,,,0.00,0.000000,,2013-02-12 02:12:00,
2013-02-11 19:21:00,26.0,17.0,-100.00,North,2,5.0,12.0,67,0.00,,,0.00,0.000000,,2013-02-12 02:21:00,
2013-02-11 19:31:00,26.0,17.0,-100.00,North,2,5.0,12.0,67,0.00,,,0.00,0.000000,,2013-02-12 02:31:00,
2013-02-11 19:53:00,24.0,20.0,-100.00,West,280,3.0,11.0,86,0.00,,,0.00,0.000000,,2013-02-12 02:53:00,
2013-02-11 20:02:00,24.0,20.0,-100.00,West,280,3.0,11.0,86,0.00,,,0.00,0.000000,,2013-02-12 03:02:00,
2013-02-11 20:11:00,24.0,20.0,-100.00,West,280,3.0,11.0,86,0.00,,,0.00,0.000000,,2013-02-12 03:11:00,
2013-02-11 20:21:00,24.0,20.0,-100.00,West,280,3.0,11.0,86,0.00,,,0.00,0.000000,,2013-02-12 03:21:00,
2013-02-11 20:31:00,24.0,20.0,-100.00,West,280,3.0,11.0,86,0.00,,,0.00,0.000000,,2013-02-12 03:31:00,
2013-02-11 20:52:00,23.0,21.0,-100.00,South,190,3.0,5.0,90,0.00,,,0.00,0.000000,,2013-02-12 03:52:00,
2013-02-11 21:01:00,23.0,21.0,-100.00,South,190,3.0,5.0,90,0.00,,,0.00,0.000000,,2013-02-12 04:01:00,
2013-02-11 21:11:00,23.0,21.0,-100.00,South,190,3.0,5.0,90,0.00,,,0.00,0.000000,,2013-02-12 04:11:00,
2013-02-11 21:21:00,23.0,21.0,-100.00,South,190,3.0,5.0,90,0.00,,,0.00,0.000000,,2013-02-12 04:21:00,
2013-02-11 21:31:00,23.0,21.0,-100.00,South,190,3.0,5.0,90,0.00,,,0.00,0.000000,,2013-02-12 04:31:00,
2013-02-11 21:52:00,23.0,19.0,-100.00,ESE,119,3.0,6.0,86,0.00,,,0.00,0.000000,,2013-02-12 04:52:00,
2013-02-11 22:01:00,23.0,19.0,-100.00,ESE,119,3.0,6.0,86,0.00,,,0.00,0.000000,,2013-02-12 05:01:00,
2013-02-11 22:11:00,23.0,19.0,-100.00,ESE,119,3.0,6.0,86,0.00,,,0.00,0.000000,,2013-02-12 05:11:00,
2013-02-11 22:21:00,23.0,19.0,-100.00,ESE,119,3.0,6.0,86,0.00,,,0.00,0.000000,,2013-02-12 05:21:00,
2013-02-11 22:31:00,23.0,19.0,-100.00,ESE,119,3.0,6.0,86,0.00,,,0.00,0.000000,,2013-02-12 05:31:00,
2013-02-11 22:52:00,23.0,20.0,-100.00,South,179,4.0,6.0,87,0.00,,,0.00,0.000000,,2013-02-12 05:52:00,
2013-02-11 23:01:00,23.0,20.0,-100.00,South,179,4.0,6.0,87,0.00,,,0.00,0.000000,,2013-02-12 06:01:00,
2013-02-11 23:12:00,23.0,20.0,-100.00,South,179,4.0,6.0,87,0.00,,,0.00,0.000000,,2013-02-12 06:12:00,
2013-02-11 23:21:00,23.0,20.0,-100.00,South,179,4.0,6.0,87,0.00,,,0.00,0.000000,,2013-02-12 06:21:00,
2013-02-11 23:32:00,23.0,20.0,-100.00,South,179,4.0,6.0,87,0.00,,,0.00,0.000000,,2013-02-12 06:32:00,
2013-02-11 23:52:00,22.0,19.0,-100.00,SW,218,2.0,5.0,88,0.00,,,0.00,0.000000,,2013-02-12 06:52:00,